Aérodrome :
LOGIN :

S'inscrire | Disclaimer

   EN    FR    IT 

 










Légende :    VFR   VFR Marginal   IFR   IFR Intensif   IFR Très Intensif
Visi : 
Plafond : 
>= 8 km
>= 3000ft
5 à 8 km
1000 à 3000 ft
1500m à 5 km
500 à 1000 ft
800 à 1500m
200 à 500 ft
< 800m
< 200 ft
Symboles :   Orages  Brouillard  Fortes neiges  Fortes précipitations  Vent > 20 kt
SIGMETs :   Divers  Orages  Givrage  Turbulence  Onde Orograph.  Cendres Volcan.







- Altitude de l'aérodrome : 194 ft
- Code IATA : ANE
- Voir les cartes d'approche


LFJR - Angers Marcé

DERNIER METAR :
  • 200830Z AUTO 35003KT 310V030 9999 FEW016 BKN036 OVC042 14/11 Q1013

METARs EXPIRÉS :
  • 200800Z AUTO 33003KT 300V010 9000 FEW013 OVC042 14/11 Q1013
  • 200730Z AUTO 34004KT 310V020 8000 FEW012 BKN042 OVC082 13/11 Q1013
  • 200700Z AUTO VRB03KT 6000 FEW009 BKN044 BKN066 13/11 Q1012
  • 200630Z AUTO VRB02KT 4400 BR FEW006 BKN036 OVC054 12/11 Q1012
  • 200600Z AUTO 00000KT 3600 BR SCT033 BKN048 BKN068 12/11 Q1012

Prévision TAF périmée.
Pas de NOTAMs connus pour ce terrain.



MET'MAP, la Météo Aéronautique d'un coup d'oeil ! - Copyright ORBIFLY Décembre 2007 - Disclaimer

ORBIFLY MET'MAP TEAM :

Programmation & Développement : Alexandra Zaïnal
Conception & Développement : Baudouin d'Aumeries
Co-Programmation & Développement : Marc-Olivier Méhu
Soutien technique & logistique : Manuel Goepfert

Contact : metmap@orbifly.com




SOURCES & CREDITS :

   NOAA